<?xml version="1.0" encoding="UTF-8" standalone="no" ?>
<gpx xmlns="http://www.topografix.com/GPX/1/1" xmlns:xsi="http://www.w3.org/2001/XMLSchema-instance" xsi:schemaLocation="http://www.topografix.com/GPX/1/1 http://www.topografix.com/GPX/1/1/gpx.xsd" version="1.1" creator="VisuGPX - https://www.visugpx.com">
  <metadata>
    <name>Course à pied le matin</name>
  </metadata>
  <trk>
    <name><![CDATA[Course à pied le matin_1]]></name>
    <trkseg>
      <trkpt lat="46.76984" lon="-0.85904">
        <ele>134.3</ele>
        <time>2023-10-25T05:09:21Z</time>
      </trkpt>
      <trkpt lat="46.76999" lon="-0.85887">
        <ele>135.8</ele>
        <time>2023-10-25T05:09:30Z</time>
      </trkpt>
      <trkpt lat="46.77014" lon="-0.85872">
        <ele>137.3</ele>
        <time>2023-10-25T05:09:39Z</time>
      </trkpt>
      <trkpt lat="46.77033" lon="-0.85877">
        <ele>138.3</ele>
        <time>2023-10-25T05:09:48Z</time>
      </trkpt>
      <trkpt lat="46.77046" lon="-0.85898">
        <ele>138.9</ele>
        <time>2023-10-25T05:09:57Z</time>
      </trkpt>
      <trkpt lat="46.77051" lon="-0.85926">
        <ele>139</ele>
        <time>2023-10-25T05:10:05Z</time>
      </trkpt>
      <trkpt lat="46.77055" lon="-0.85953">
        <ele>138.8</ele>
        <time>2023-10-25T05:10:13Z</time>
      </trkpt>
      <trkpt lat="46.7706" lon="-0.85978">
        <ele>138.4</ele>
        <time>2023-10-25T05:10:19Z</time>
      </trkpt>
      <trkpt lat="46.77064" lon="-0.86005">
        <ele>137.8</ele>
        <time>2023-10-25T05:10:26Z</time>
      </trkpt>
      <trkpt lat="46.7707" lon="-0.8603">
        <ele>137</ele>
        <time>2023-10-25T05:10:33Z</time>
      </trkpt>
      <trkpt lat="46.77077" lon="-0.86056">
        <ele>136.1</ele>
        <time>2023-10-25T05:10:40Z</time>
      </trkpt>
      <trkpt lat="46.77086" lon="-0.86081">
        <ele>135.1</ele>
        <time>2023-10-25T05:10:47Z</time>
      </trkpt>
      <trkpt lat="46.77095" lon="-0.86105">
        <ele>134.3</ele>
        <time>2023-10-25T05:10:54Z</time>
      </trkpt>
      <trkpt lat="46.77106" lon="-0.86127">
        <ele>133.4</ele>
        <time>2023-10-25T05:11:00Z</time>
      </trkpt>
      <trkpt lat="46.77117" lon="-0.86149">
        <ele>132.5</ele>
        <time>2023-10-25T05:11:06Z</time>
      </trkpt>
      <trkpt lat="46.77128" lon="-0.86171">
        <ele>131.8</ele>
        <time>2023-10-25T05:11:12Z</time>
      </trkpt>
      <trkpt lat="46.77139" lon="-0.86193">
        <ele>131.2</ele>
        <time>2023-10-25T05:11:18Z</time>
      </trkpt>
      <trkpt lat="46.77151" lon="-0.86214">
        <ele>130.7</ele>
        <time>2023-10-25T05:11:24Z</time>
      </trkpt>
      <trkpt lat="46.77163" lon="-0.86236">
        <ele>130.2</ele>
        <time>2023-10-25T05:11:30Z</time>
      </trkpt>
      <trkpt lat="46.77169" lon="-0.86262">
        <ele>129.8</ele>
        <time>2023-10-25T05:11:36Z</time>
      </trkpt>
      <trkpt lat="46.77171" lon="-0.86289">
        <ele>129.4</ele>
        <time>2023-10-25T05:11:42Z</time>
      </trkpt>
      <trkpt lat="46.77168" lon="-0.86316">
        <ele>128.9</ele>
        <time>2023-10-25T05:11:48Z</time>
      </trkpt>
      <trkpt lat="46.77163" lon="-0.86342">
        <ele>127.9</ele>
        <time>2023-10-25T05:11:54Z</time>
      </trkpt>
      <trkpt lat="46.77158" lon="-0.86369">
        <ele>126.8</ele>
        <time>2023-10-25T05:12:00Z</time>
      </trkpt>
      <trkpt lat="46.77154" lon="-0.86395">
        <ele>125.5</ele>
        <time>2023-10-25T05:12:06Z</time>
      </trkpt>
      <trkpt lat="46.7715" lon="-0.86421">
        <ele>124.3</ele>
        <time>2023-10-25T05:12:12Z</time>
      </trkpt>
      <trkpt lat="46.77146" lon="-0.86447">
        <ele>123</ele>
        <time>2023-10-25T05:12:18Z</time>
      </trkpt>
      <trkpt lat="46.77144" lon="-0.86474">
        <ele>121.7</ele>
        <time>2023-10-25T05:12:24Z</time>
      </trkpt>
      <trkpt lat="46.77143" lon="-0.86504">
        <ele>120.4</ele>
        <time>2023-10-25T05:12:30Z</time>
      </trkpt>
      <trkpt lat="46.77145" lon="-0.86531">
        <ele>119.4</ele>
        <time>2023-10-25T05:12:36Z</time>
      </trkpt>
      <trkpt lat="46.77148" lon="-0.86558">
        <ele>118.3</ele>
        <time>2023-10-25T05:12:42Z</time>
      </trkpt>
      <trkpt lat="46.77151" lon="-0.86584">
        <ele>117.4</ele>
        <time>2023-10-25T05:12:48Z</time>
      </trkpt>
      <trkpt lat="46.77153" lon="-0.86612">
        <ele>116.5</ele>
        <time>2023-10-25T05:12:54Z</time>
      </trkpt>
      <trkpt lat="46.77156" lon="-0.8664">
        <ele>115.6</ele>
        <time>2023-10-25T05:13:00Z</time>
      </trkpt>
      <trkpt lat="46.77158" lon="-0.86668">
        <ele>114.6</ele>
        <time>2023-10-25T05:13:06Z</time>
      </trkpt>
      <trkpt lat="46.77159" lon="-0.86695">
        <ele>114.1</ele>
        <time>2023-10-25T05:13:13Z</time>
      </trkpt>
      <trkpt lat="46.77162" lon="-0.86724">
        <ele>113.8</ele>
        <time>2023-10-25T05:13:20Z</time>
      </trkpt>
      <trkpt lat="46.77165" lon="-0.86751">
        <ele>113.7</ele>
        <time>2023-10-25T05:13:26Z</time>
      </trkpt>
      <trkpt lat="46.77173" lon="-0.86778">
        <ele>113.7</ele>
        <time>2023-10-25T05:13:32Z</time>
      </trkpt>
      <trkpt lat="46.77178" lon="-0.86805">
        <ele>113.8</ele>
        <time>2023-10-25T05:13:38Z</time>
      </trkpt>
      <trkpt lat="46.77188" lon="-0.8683">
        <ele>114.3</ele>
        <time>2023-10-25T05:13:44Z</time>
      </trkpt>
      <trkpt lat="46.77202" lon="-0.86848">
        <ele>115</ele>
        <time>2023-10-25T05:13:50Z</time>
      </trkpt>
      <trkpt lat="46.77217" lon="-0.86864">
        <ele>116</ele>
        <time>2023-10-25T05:13:56Z</time>
      </trkpt>
      <trkpt lat="46.77232" lon="-0.86883">
        <ele>117.3</ele>
        <time>2023-10-25T05:14:03Z</time>
      </trkpt>
      <trkpt lat="46.77245" lon="-0.86902">
        <ele>117.9</ele>
        <time>2023-10-25T05:14:10Z</time>
      </trkpt>
      <trkpt lat="46.77255" lon="-0.86924">
        <ele>118.6</ele>
        <time>2023-10-25T05:14:17Z</time>
      </trkpt>
      <trkpt lat="46.77261" lon="-0.86951">
        <ele>119.1</ele>
        <time>2023-10-25T05:14:24Z</time>
      </trkpt>
      <trkpt lat="46.77262" lon="-0.86978">
        <ele>119.5</ele>
        <time>2023-10-25T05:14:31Z</time>
      </trkpt>
      <trkpt lat="46.77253" lon="-0.87001">
        <ele>119.8</ele>
        <time>2023-10-25T05:14:38Z</time>
      </trkpt>
      <trkpt lat="46.77239" lon="-0.87022">
        <ele>119.9</ele>
        <time>2023-10-25T05:14:46Z</time>
      </trkpt>
      <trkpt lat="46.77222" lon="-0.8704">
        <ele>119.7</ele>
        <time>2023-10-25T05:14:53Z</time>
      </trkpt>
      <trkpt lat="46.77208" lon="-0.87059">
        <ele>119</ele>
        <time>2023-10-25T05:15:00Z</time>
      </trkpt>
      <trkpt lat="46.77199" lon="-0.87082">
        <ele>118.1</ele>
        <time>2023-10-25T05:15:06Z</time>
      </trkpt>
      <trkpt lat="46.77191" lon="-0.87108">
        <ele>117</ele>
        <time>2023-10-25T05:15:12Z</time>
      </trkpt>
      <trkpt lat="46.77186" lon="-0.87123">
        <ele>116.4</ele>
        <time>2023-10-25T05:15:19Z</time>
      </trkpt>
      <trkpt lat="46.77189" lon="-0.87121">
        <ele>116.6</ele>
        <time>2023-10-25T05:15:26Z</time>
      </trkpt>
      <trkpt lat="46.77191" lon="-0.87115">
        <ele>116.8</ele>
        <time>2023-10-25T05:15:28Z</time>
      </trkpt>
      <trkpt lat="46.77201" lon="-0.87089">
        <ele>117.9</ele>
        <time>2023-10-25T05:15:34Z</time>
      </trkpt>
      <trkpt lat="46.77211" lon="-0.87065">
        <ele>118.9</ele>
        <time>2023-10-25T05:15:40Z</time>
      </trkpt>
      <trkpt lat="46.77222" lon="-0.87045">
        <ele>120</ele>
        <time>2023-10-25T05:15:46Z</time>
      </trkpt>
      <trkpt lat="46.77227" lon="-0.87042">
        <ele>120</ele>
        <time>2023-10-25T05:15:48Z</time>
      </trkpt>
      <trkpt lat="46.77242" lon="-0.87056">
        <ele>120</ele>
        <time>2023-10-25T05:15:55Z</time>
      </trkpt>
      <trkpt lat="46.77257" lon="-0.87075">
        <ele>120.1</ele>
        <time>2023-10-25T05:16:02Z</time>
      </trkpt>
      <trkpt lat="46.77275" lon="-0.87091">
        <ele>119.9</ele>
        <time>2023-10-25T05:16:09Z</time>
      </trkpt>
      <trkpt lat="46.7729" lon="-0.87107">
        <ele>119.5</ele>
        <time>2023-10-25T05:16:16Z</time>
      </trkpt>
      <trkpt lat="46.77301" lon="-0.8713">
        <ele>119.3</ele>
        <time>2023-10-25T05:16:23Z</time>
      </trkpt>
      <trkpt lat="46.77313" lon="-0.87152">
        <ele>119.2</ele>
        <time>2023-10-25T05:16:30Z</time>
      </trkpt>
      <trkpt lat="46.77325" lon="-0.87176">
        <ele>119.3</ele>
        <time>2023-10-25T05:16:37Z</time>
      </trkpt>
      <trkpt lat="46.77339" lon="-0.87199">
        <ele>119.4</ele>
        <time>2023-10-25T05:16:44Z</time>
      </trkpt>
      <trkpt lat="46.77354" lon="-0.87214">
        <ele>119.6</ele>
        <time>2023-10-25T05:16:50Z</time>
      </trkpt>
      <trkpt lat="46.77372" lon="-0.87225">
        <ele>120</ele>
        <time>2023-10-25T05:16:56Z</time>
      </trkpt>
      <trkpt lat="46.77391" lon="-0.87231">
        <ele>120.5</ele>
        <time>2023-10-25T05:17:02Z</time>
      </trkpt>
      <trkpt lat="46.77411" lon="-0.87234">
        <ele>121.3</ele>
        <time>2023-10-25T05:17:08Z</time>
      </trkpt>
      <trkpt lat="46.77429" lon="-0.87244">
        <ele>121.8</ele>
        <time>2023-10-25T05:17:15Z</time>
      </trkpt>
      <trkpt lat="46.77438" lon="-0.87269">
        <ele>122.1</ele>
        <time>2023-10-25T05:17:22Z</time>
      </trkpt>
      <trkpt lat="46.77444" lon="-0.87295">
        <ele>122.5</ele>
        <time>2023-10-25T05:17:29Z</time>
      </trkpt>
      <trkpt lat="46.77452" lon="-0.87319">
        <ele>122.9</ele>
        <time>2023-10-25T05:17:36Z</time>
      </trkpt>
      <trkpt lat="46.77458" lon="-0.87345">
        <ele>123.4</ele>
        <time>2023-10-25T05:17:44Z</time>
      </trkpt>
      <trkpt lat="46.77466" lon="-0.8737">
        <ele>124</ele>
        <time>2023-10-25T05:17:51Z</time>
      </trkpt>
      <trkpt lat="46.77475" lon="-0.87393">
        <ele>124.4</ele>
        <time>2023-10-25T05:17:57Z</time>
      </trkpt>
      <trkpt lat="46.77484" lon="-0.87417">
        <ele>125</ele>
        <time>2023-10-25T05:18:03Z</time>
      </trkpt>
      <trkpt lat="46.77492" lon="-0.87444">
        <ele>125.5</ele>
        <time>2023-10-25T05:18:10Z</time>
      </trkpt>
      <trkpt lat="46.77501" lon="-0.87471">
        <ele>126.1</ele>
        <time>2023-10-25T05:18:17Z</time>
      </trkpt>
      <trkpt lat="46.77509" lon="-0.87498">
        <ele>126.7</ele>
        <time>2023-10-25T05:18:24Z</time>
      </trkpt>
      <trkpt lat="46.77517" lon="-0.87525">
        <ele>127.5</ele>
        <time>2023-10-25T05:18:31Z</time>
      </trkpt>
      <trkpt lat="46.7752" lon="-0.87551">
        <ele>127.9</ele>
        <time>2023-10-25T05:18:37Z</time>
      </trkpt>
      <trkpt lat="46.77523" lon="-0.8758">
        <ele>128.4</ele>
        <time>2023-10-25T05:18:44Z</time>
      </trkpt>
      <trkpt lat="46.77525" lon="-0.87609">
        <ele>128.8</ele>
        <time>2023-10-25T05:18:51Z</time>
      </trkpt>
      <trkpt lat="46.77527" lon="-0.87637">
        <ele>129.2</ele>
        <time>2023-10-25T05:18:57Z</time>
      </trkpt>
      <trkpt lat="46.7753" lon="-0.87665">
        <ele>129.7</ele>
        <time>2023-10-25T05:19:03Z</time>
      </trkpt>
      <trkpt lat="46.77532" lon="-0.87693">
        <ele>130</ele>
        <time>2023-10-25T05:19:10Z</time>
      </trkpt>
      <trkpt lat="46.77536" lon="-0.8772">
        <ele>130.4</ele>
        <time>2023-10-25T05:19:17Z</time>
      </trkpt>
      <trkpt lat="46.7754" lon="-0.87748">
        <ele>130.8</ele>
        <time>2023-10-25T05:19:24Z</time>
      </trkpt>
      <trkpt lat="46.77543" lon="-0.87774">
        <ele>131.2</ele>
        <time>2023-10-25T05:19:30Z</time>
      </trkpt>
      <trkpt lat="46.77547" lon="-0.87801">
        <ele>131.6</ele>
        <time>2023-10-25T05:19:36Z</time>
      </trkpt>
      <trkpt lat="46.77551" lon="-0.87827">
        <ele>132</ele>
        <time>2023-10-25T05:19:42Z</time>
      </trkpt>
      <trkpt lat="46.77556" lon="-0.87855">
        <ele>132.4</ele>
        <time>2023-10-25T05:19:49Z</time>
      </trkpt>
      <trkpt lat="46.7756" lon="-0.87881">
        <ele>132.8</ele>
        <time>2023-10-25T05:19:56Z</time>
      </trkpt>
      <trkpt lat="46.77563" lon="-0.87908">
        <ele>133.3</ele>
        <time>2023-10-25T05:20:03Z</time>
      </trkpt>
      <trkpt lat="46.77566" lon="-0.87938">
        <ele>133.9</ele>
        <time>2023-10-25T05:20:10Z</time>
      </trkpt>
      <trkpt lat="46.77572" lon="-0.87965">
        <ele>134.6</ele>
        <time>2023-10-25T05:20:16Z</time>
      </trkpt>
      <trkpt lat="46.7758" lon="-0.8799">
        <ele>135.2</ele>
        <time>2023-10-25T05:20:22Z</time>
      </trkpt>
      <trkpt lat="46.77587" lon="-0.88014">
        <ele>135.9</ele>
        <time>2023-10-25T05:20:28Z</time>
      </trkpt>
      <trkpt lat="46.77595" lon="-0.88039">
        <ele>136.7</ele>
        <time>2023-10-25T05:20:34Z</time>
      </trkpt>
      <trkpt lat="46.77603" lon="-0.88066">
        <ele>137.9</ele>
        <time>2023-10-25T05:20:41Z</time>
      </trkpt>
      <trkpt lat="46.77611" lon="-0.88087">
        <ele>139.2</ele>
        <time>2023-10-25T05:20:47Z</time>
      </trkpt>
      <trkpt lat="46.7763" lon="-0.88082">
        <ele>139.4</ele>
        <time>2023-10-25T05:20:53Z</time>
      </trkpt>
      <trkpt lat="46.77648" lon="-0.88075">
        <ele>139.6</ele>
        <time>2023-10-25T05:20:59Z</time>
      </trkpt>
      <trkpt lat="46.77667" lon="-0.8807">
        <ele>139.8</ele>
        <time>2023-10-25T05:21:05Z</time>
      </trkpt>
      <trkpt lat="46.77686" lon="-0.88063">
        <ele>140</ele>
        <time>2023-10-25T05:21:12Z</time>
      </trkpt>
      <trkpt lat="46.77688" lon="-0.88059">
        <ele>140</ele>
        <time>2023-10-25T05:21:26Z</time>
      </trkpt>
      <trkpt lat="46.77708" lon="-0.88051">
        <ele>140</ele>
        <time>2023-10-25T05:21:33Z</time>
      </trkpt>
      <trkpt lat="46.77725" lon="-0.88041">
        <ele>140.2</ele>
        <time>2023-10-25T05:21:38Z</time>
      </trkpt>
      <trkpt lat="46.77743" lon="-0.88028">
        <ele>140.5</ele>
        <time>2023-10-25T05:21:44Z</time>
      </trkpt>
      <trkpt lat="46.77762" lon="-0.88016">
        <ele>140.6</ele>
        <time>2023-10-25T05:21:50Z</time>
      </trkpt>
      <trkpt lat="46.7778" lon="-0.88011">
        <ele>140.9</ele>
        <time>2023-10-25T05:21:56Z</time>
      </trkpt>
      <trkpt lat="46.77797" lon="-0.88001">
        <ele>141</ele>
        <time>2023-10-25T05:22:02Z</time>
      </trkpt>
      <trkpt lat="46.77814" lon="-0.87991">
        <ele>141.3</ele>
        <time>2023-10-25T05:22:08Z</time>
      </trkpt>
      <trkpt lat="46.77832" lon="-0.8798">
        <ele>141.6</ele>
        <time>2023-10-25T05:22:14Z</time>
      </trkpt>
      <trkpt lat="46.77849" lon="-0.87969">
        <ele>141.8</ele>
        <time>2023-10-25T05:22:20Z</time>
      </trkpt>
      <trkpt lat="46.77866" lon="-0.8796">
        <ele>142.1</ele>
        <time>2023-10-25T05:22:26Z</time>
      </trkpt>
      <trkpt lat="46.77883" lon="-0.87949">
        <ele>142.3</ele>
        <time>2023-10-25T05:22:32Z</time>
      </trkpt>
      <trkpt lat="46.779" lon="-0.8794">
        <ele>142.5</ele>
        <time>2023-10-25T05:22:38Z</time>
      </trkpt>
      <trkpt lat="46.77918" lon="-0.8793">
        <ele>142.7</ele>
        <time>2023-10-25T05:22:44Z</time>
      </trkpt>
      <trkpt lat="46.77935" lon="-0.8792">
        <ele>142.7</ele>
        <time>2023-10-25T05:22:50Z</time>
      </trkpt>
      <trkpt lat="46.77953" lon="-0.87904">
        <ele>142.6</ele>
        <time>2023-10-25T05:22:56Z</time>
      </trkpt>
      <trkpt lat="46.77969" lon="-0.87893">
        <ele>142.3</ele>
        <time>2023-10-25T05:23:01Z</time>
      </trkpt>
      <trkpt lat="46.77989" lon="-0.87888">
        <ele>141.9</ele>
        <time>2023-10-25T05:23:07Z</time>
      </trkpt>
      <trkpt lat="46.78008" lon="-0.87883">
        <ele>141.2</ele>
        <time>2023-10-25T05:23:13Z</time>
      </trkpt>
      <trkpt lat="46.78029" lon="-0.87878">
        <ele>140.6</ele>
        <time>2023-10-25T05:23:19Z</time>
      </trkpt>
      <trkpt lat="46.78049" lon="-0.87871">
        <ele>140.1</ele>
        <time>2023-10-25T05:23:25Z</time>
      </trkpt>
      <trkpt lat="46.78068" lon="-0.87861">
        <ele>139.7</ele>
        <time>2023-10-25T05:23:31Z</time>
      </trkpt>
      <trkpt lat="46.78087" lon="-0.8785">
        <ele>139.4</ele>
        <time>2023-10-25T05:23:37Z</time>
      </trkpt>
      <trkpt lat="46.78105" lon="-0.87837">
        <ele>139.4</ele>
        <time>2023-10-25T05:23:43Z</time>
      </trkpt>
      <trkpt lat="46.78124" lon="-0.87821">
        <ele>139.6</ele>
        <time>2023-10-25T05:23:49Z</time>
      </trkpt>
      <trkpt lat="46.78139" lon="-0.87804">
        <ele>139.8</ele>
        <time>2023-10-25T05:23:55Z</time>
      </trkpt>
      <trkpt lat="46.78157" lon="-0.8779">
        <ele>140.1</ele>
        <time>2023-10-25T05:24:01Z</time>
      </trkpt>
      <trkpt lat="46.78164" lon="-0.8779">
        <ele>140.5</ele>
        <time>2023-10-25T05:24:02Z</time>
      </trkpt>
      <trkpt lat="46.7818" lon="-0.87804">
        <ele>141</ele>
        <time>2023-10-25T05:24:09Z</time>
      </trkpt>
      <trkpt lat="46.78193" lon="-0.87825">
        <ele>141.5</ele>
        <time>2023-10-25T05:24:15Z</time>
      </trkpt>
      <trkpt lat="46.78204" lon="-0.87847">
        <ele>142</ele>
        <time>2023-10-25T05:24:21Z</time>
      </trkpt>
      <trkpt lat="46.78216" lon="-0.87865">
        <ele>142.5</ele>
        <time>2023-10-25T05:24:27Z</time>
      </trkpt>
      <trkpt lat="46.78234" lon="-0.87857">
        <ele>143</ele>
        <time>2023-10-25T05:24:33Z</time>
      </trkpt>
      <trkpt lat="46.78252" lon="-0.87843">
        <ele>143.5</ele>
        <time>2023-10-25T05:24:39Z</time>
      </trkpt>
      <trkpt lat="46.78271" lon="-0.87834">
        <ele>144.1</ele>
        <time>2023-10-25T05:24:45Z</time>
      </trkpt>
      <trkpt lat="46.78291" lon="-0.87846">
        <ele>144.6</ele>
        <time>2023-10-25T05:24:51Z</time>
      </trkpt>
      <trkpt lat="46.78308" lon="-0.87855">
        <ele>145.1</ele>
        <time>2023-10-25T05:24:56Z</time>
      </trkpt>
      <trkpt lat="46.78325" lon="-0.87864">
        <ele>145.3</ele>
        <time>2023-10-25T05:25:02Z</time>
      </trkpt>
      <trkpt lat="46.78344" lon="-0.87868">
        <ele>145.4</ele>
        <time>2023-10-25T05:25:09Z</time>
      </trkpt>
      <trkpt lat="46.7836" lon="-0.87885">
        <ele>145.5</ele>
        <time>2023-10-25T05:25:15Z</time>
      </trkpt>
      <trkpt lat="46.78374" lon="-0.87894">
        <ele>145.5</ele>
        <time>2023-10-25T05:25:20Z</time>
      </trkpt>
      <trkpt lat="46.78387" lon="-0.87875">
        <ele>145.8</ele>
        <time>2023-10-25T05:25:26Z</time>
      </trkpt>
      <trkpt lat="46.784" lon="-0.87853">
        <ele>146.2</ele>
        <time>2023-10-25T05:25:32Z</time>
      </trkpt>
      <trkpt lat="46.78412" lon="-0.87833">
        <ele>146.7</ele>
        <time>2023-10-25T05:25:38Z</time>
      </trkpt>
      <trkpt lat="46.78429" lon="-0.87815">
        <ele>147.2</ele>
        <time>2023-10-25T05:25:45Z</time>
      </trkpt>
      <trkpt lat="46.78443" lon="-0.87799">
        <ele>147.6</ele>
        <time>2023-10-25T05:25:51Z</time>
      </trkpt>
      <trkpt lat="46.7846" lon="-0.87783">
        <ele>147.8</ele>
        <time>2023-10-25T05:25:57Z</time>
      </trkpt>
      <trkpt lat="46.78476" lon="-0.87766">
        <ele>147.8</ele>
        <time>2023-10-25T05:26:03Z</time>
      </trkpt>
      <trkpt lat="46.78493" lon="-0.87749">
        <ele>147.6</ele>
        <time>2023-10-25T05:26:09Z</time>
      </trkpt>
      <trkpt lat="46.7851" lon="-0.87736">
        <ele>147.3</ele>
        <time>2023-10-25T05:26:14Z</time>
      </trkpt>
      <trkpt lat="46.78526" lon="-0.87725">
        <ele>147</ele>
        <time>2023-10-25T05:26:19Z</time>
      </trkpt>
      <trkpt lat="46.78542" lon="-0.87713">
        <ele>146.5</ele>
        <time>2023-10-25T05:26:24Z</time>
      </trkpt>
      <trkpt lat="46.78561" lon="-0.877">
        <ele>145.9</ele>
        <time>2023-10-25T05:26:30Z</time>
      </trkpt>
      <trkpt lat="46.78579" lon="-0.87684">
        <ele>145.6</ele>
        <time>2023-10-25T05:26:36Z</time>
      </trkpt>
      <trkpt lat="46.78595" lon="-0.8767">
        <ele>145.5</ele>
        <time>2023-10-25T05:26:42Z</time>
      </trkpt>
      <trkpt lat="46.78612" lon="-0.87656">
        <ele>145.6</ele>
        <time>2023-10-25T05:26:48Z</time>
      </trkpt>
      <trkpt lat="46.78628" lon="-0.8764">
        <ele>145.9</ele>
        <time>2023-10-25T05:26:54Z</time>
      </trkpt>
      <trkpt lat="46.78644" lon="-0.87625">
        <ele>146.5</ele>
        <time>2023-10-25T05:27:00Z</time>
      </trkpt>
      <trkpt lat="46.78661" lon="-0.8761">
        <ele>147.5</ele>
        <time>2023-10-25T05:27:07Z</time>
      </trkpt>
      <trkpt lat="46.78677" lon="-0.87597">
        <ele>148.8</ele>
        <time>2023-10-25T05:27:13Z</time>
      </trkpt>
      <trkpt lat="46.78694" lon="-0.87583">
        <ele>150.2</ele>
        <time>2023-10-25T05:27:20Z</time>
      </trkpt>
      <trkpt lat="46.78711" lon="-0.87576">
        <ele>151.9</ele>
        <time>2023-10-25T05:27:27Z</time>
      </trkpt>
      <trkpt lat="46.78731" lon="-0.87577">
        <ele>153.7</ele>
        <time>2023-10-25T05:27:33Z</time>
      </trkpt>
      <trkpt lat="46.78749" lon="-0.8758">
        <ele>155.2</ele>
        <time>2023-10-25T05:27:39Z</time>
      </trkpt>
      <trkpt lat="46.7877" lon="-0.87584">
        <ele>156.7</ele>
        <time>2023-10-25T05:27:46Z</time>
      </trkpt>
      <trkpt lat="46.78791" lon="-0.87589">
        <ele>158.4</ele>
        <time>2023-10-25T05:27:53Z</time>
      </trkpt>
      <trkpt lat="46.78809" lon="-0.87592">
        <ele>159.7</ele>
        <time>2023-10-25T05:27:59Z</time>
      </trkpt>
      <trkpt lat="46.7883" lon="-0.87597">
        <ele>161</ele>
        <time>2023-10-25T05:28:06Z</time>
      </trkpt>
      <trkpt lat="46.78849" lon="-0.87599">
        <ele>162</ele>
        <time>2023-10-25T05:28:13Z</time>
      </trkpt>
      <trkpt lat="46.78869" lon="-0.87601">
        <ele>163.1</ele>
        <time>2023-10-25T05:28:20Z</time>
      </trkpt>
      <trkpt lat="46.78888" lon="-0.87603">
        <ele>164.1</ele>
        <time>2023-10-25T05:28:26Z</time>
      </trkpt>
      <trkpt lat="46.78908" lon="-0.87599">
        <ele>165.5</ele>
        <time>2023-10-25T05:28:33Z</time>
      </trkpt>
      <trkpt lat="46.78925" lon="-0.8759">
        <ele>167</ele>
        <time>2023-10-25T05:28:40Z</time>
      </trkpt>
      <trkpt lat="46.78942" lon="-0.87576">
        <ele>168.6</ele>
        <time>2023-10-25T05:28:47Z</time>
      </trkpt>
      <trkpt lat="46.78961" lon="-0.87562">
        <ele>170.1</ele>
        <time>2023-10-25T05:28:54Z</time>
      </trkpt>
      <trkpt lat="46.78978" lon="-0.87551">
        <ele>171.3</ele>
        <time>2023-10-25T05:29:00Z</time>
      </trkpt>
      <trkpt lat="46.78995" lon="-0.8754">
        <ele>172.4</ele>
        <time>2023-10-25T05:29:07Z</time>
      </trkpt>
      <trkpt lat="46.79014" lon="-0.87529">
        <ele>173.5</ele>
        <time>2023-10-25T05:29:15Z</time>
      </trkpt>
      <trkpt lat="46.79033" lon="-0.87519">
        <ele>174.8</ele>
        <time>2023-10-25T05:29:24Z</time>
      </trkpt>
      <trkpt lat="46.79051" lon="-0.87514">
        <ele>175.9</ele>
        <time>2023-10-25T05:29:31Z</time>
      </trkpt>
      <trkpt lat="46.79072" lon="-0.87515">
        <ele>177.1</ele>
        <time>2023-10-25T05:29:37Z</time>
      </trkpt>
      <trkpt lat="46.79091" lon="-0.87516">
        <ele>177.9</ele>
        <time>2023-10-25T05:29:42Z</time>
      </trkpt>
      <trkpt lat="46.79112" lon="-0.87519">
        <ele>178.4</ele>
        <time>2023-10-25T05:29:48Z</time>
      </trkpt>
      <trkpt lat="46.79133" lon="-0.87516">
        <ele>178.7</ele>
        <time>2023-10-25T05:29:54Z</time>
      </trkpt>
      <trkpt lat="46.79154" lon="-0.87512">
        <ele>179</ele>
        <time>2023-10-25T05:30:00Z</time>
      </trkpt>
      <trkpt lat="46.79173" lon="-0.87507">
        <ele>179.4</ele>
        <time>2023-10-25T05:30:06Z</time>
      </trkpt>
      <trkpt lat="46.79191" lon="-0.87498">
        <ele>179.8</ele>
        <time>2023-10-25T05:30:12Z</time>
      </trkpt>
      <trkpt lat="46.7921" lon="-0.87488">
        <ele>180</ele>
        <time>2023-10-25T05:30:18Z</time>
      </trkpt>
      <trkpt lat="46.79228" lon="-0.87479">
        <ele>180.1</ele>
        <time>2023-10-25T05:30:24Z</time>
      </trkpt>
      <trkpt lat="46.79246" lon="-0.87473">
        <ele>180.1</ele>
        <time>2023-10-25T05:30:29Z</time>
      </trkpt>
      <trkpt lat="46.79265" lon="-0.87463">
        <ele>180.2</ele>
        <time>2023-10-25T05:30:35Z</time>
      </trkpt>
      <trkpt lat="46.79283" lon="-0.87455">
        <ele>180.4</ele>
        <time>2023-10-25T05:30:41Z</time>
      </trkpt>
      <trkpt lat="46.793" lon="-0.87441">
        <ele>180.7</ele>
        <time>2023-10-25T05:30:47Z</time>
      </trkpt>
      <trkpt lat="46.79306" lon="-0.87414">
        <ele>181.3</ele>
        <time>2023-10-25T05:30:53Z</time>
      </trkpt>
      <trkpt lat="46.7931" lon="-0.87388">
        <ele>181.8</ele>
        <time>2023-10-25T05:30:59Z</time>
      </trkpt>
      <trkpt lat="46.79316" lon="-0.87362">
        <ele>182.4</ele>
        <time>2023-10-25T05:31:06Z</time>
      </trkpt>
      <trkpt lat="46.79322" lon="-0.87333">
        <ele>183.1</ele>
        <time>2023-10-25T05:31:13Z</time>
      </trkpt>
      <trkpt lat="46.79328" lon="-0.87306">
        <ele>183.8</ele>
        <time>2023-10-25T05:31:21Z</time>
      </trkpt>
      <trkpt lat="46.79334" lon="-0.87279">
        <ele>184.3</ele>
        <time>2023-10-25T05:31:29Z</time>
      </trkpt>
      <trkpt lat="46.79341" lon="-0.87253">
        <ele>184.8</ele>
        <time>2023-10-25T05:31:37Z</time>
      </trkpt>
      <trkpt lat="46.79346" lon="-0.87223">
        <ele>184.9</ele>
        <time>2023-10-25T05:31:45Z</time>
      </trkpt>
      <trkpt lat="46.79351" lon="-0.87195">
        <ele>184.4</ele>
        <time>2023-10-25T05:31:53Z</time>
      </trkpt>
      <trkpt lat="46.79355" lon="-0.87167">
        <ele>183.7</ele>
        <time>2023-10-25T05:32:01Z</time>
      </trkpt>
      <trkpt lat="46.7936" lon="-0.87142">
        <ele>183</ele>
        <time>2023-10-25T05:32:07Z</time>
      </trkpt>
      <trkpt lat="46.79362" lon="-0.87112">
        <ele>182.3</ele>
        <time>2023-10-25T05:32:14Z</time>
      </trkpt>
      <trkpt lat="46.79365" lon="-0.87081">
        <ele>181.5</ele>
        <time>2023-10-25T05:32:20Z</time>
      </trkpt>
      <trkpt lat="46.79369" lon="-0.87053">
        <ele>181.1</ele>
        <time>2023-10-25T05:32:25Z</time>
      </trkpt>
      <trkpt lat="46.79369" lon="-0.87022">
        <ele>180.3</ele>
        <time>2023-10-25T05:32:30Z</time>
      </trkpt>
      <trkpt lat="46.79368" lon="-0.86994">
        <ele>179.3</ele>
        <time>2023-10-25T05:32:35Z</time>
      </trkpt>
      <trkpt lat="46.79354" lon="-0.86971">
        <ele>178.8</ele>
        <time>2023-10-25T05:32:41Z</time>
      </trkpt>
      <trkpt lat="46.79337" lon="-0.86961">
        <ele>178.5</ele>
        <time>2023-10-25T05:32:47Z</time>
      </trkpt>
      <trkpt lat="46.79317" lon="-0.86951">
        <ele>177.9</ele>
        <time>2023-10-25T05:32:54Z</time>
      </trkpt>
      <trkpt lat="46.79299" lon="-0.8694">
        <ele>176.9</ele>
        <time>2023-10-25T05:33:00Z</time>
      </trkpt>
      <trkpt lat="46.79281" lon="-0.86927">
        <ele>175.6</ele>
        <time>2023-10-25T05:33:06Z</time>
      </trkpt>
      <trkpt lat="46.79263" lon="-0.86914">
        <ele>173.8</ele>
        <time>2023-10-25T05:33:12Z</time>
      </trkpt>
      <trkpt lat="46.79247" lon="-0.86901">
        <ele>171.8</ele>
        <time>2023-10-25T05:33:17Z</time>
      </trkpt>
      <trkpt lat="46.79229" lon="-0.86886">
        <ele>169.6</ele>
        <time>2023-10-25T05:33:23Z</time>
      </trkpt>
      <trkpt lat="46.79211" lon="-0.86874">
        <ele>167.3</ele>
        <time>2023-10-25T05:33:29Z</time>
      </trkpt>
      <trkpt lat="46.79194" lon="-0.86862">
        <ele>165.2</ele>
        <time>2023-10-25T05:33:35Z</time>
      </trkpt>
      <trkpt lat="46.79175" lon="-0.86849">
        <ele>162.9</ele>
        <time>2023-10-25T05:33:41Z</time>
      </trkpt>
      <trkpt lat="46.79157" lon="-0.86839">
        <ele>160.8</ele>
        <time>2023-10-25T05:33:47Z</time>
      </trkpt>
      <trkpt lat="46.79139" lon="-0.86829">
        <ele>159</ele>
        <time>2023-10-25T05:33:53Z</time>
      </trkpt>
      <trkpt lat="46.7912" lon="-0.8682">
        <ele>157.2</ele>
        <time>2023-10-25T05:34:00Z</time>
      </trkpt>
      <trkpt lat="46.791" lon="-0.86811">
        <ele>155.5</ele>
        <time>2023-10-25T05:34:07Z</time>
      </trkpt>
      <trkpt lat="46.79079" lon="-0.86808">
        <ele>154</ele>
        <time>2023-10-25T05:34:12Z</time>
      </trkpt>
      <trkpt lat="46.79058" lon="-0.86811">
        <ele>152.6</ele>
        <time>2023-10-25T05:34:18Z</time>
      </trkpt>
      <trkpt lat="46.79039" lon="-0.86816">
        <ele>151.6</ele>
        <time>2023-10-25T05:34:25Z</time>
      </trkpt>
      <trkpt lat="46.79018" lon="-0.86818">
        <ele>150.8</ele>
        <time>2023-10-25T05:34:32Z</time>
      </trkpt>
      <trkpt lat="46.79001" lon="-0.8681">
        <ele>150.2</ele>
        <time>2023-10-25T05:34:37Z</time>
      </trkpt>
      <trkpt lat="46.78987" lon="-0.86791">
        <ele>149.3</ele>
        <time>2023-10-25T05:34:43Z</time>
      </trkpt>
      <trkpt lat="46.78974" lon="-0.86768">
        <ele>148.4</ele>
        <time>2023-10-25T05:34:49Z</time>
      </trkpt>
      <trkpt lat="46.78957" lon="-0.86755">
        <ele>148.3</ele>
        <time>2023-10-25T05:34:56Z</time>
      </trkpt>
      <trkpt lat="46.78939" lon="-0.86754">
        <ele>147.9</ele>
        <time>2023-10-25T05:35:04Z</time>
      </trkpt>
      <trkpt lat="46.78918" lon="-0.86756">
        <ele>147.5</ele>
        <time>2023-10-25T05:35:11Z</time>
      </trkpt>
      <trkpt lat="46.78899" lon="-0.86758">
        <ele>147.2</ele>
        <time>2023-10-25T05:35:16Z</time>
      </trkpt>
      <trkpt lat="46.78879" lon="-0.86754">
        <ele>147.3</ele>
        <time>2023-10-25T05:35:22Z</time>
      </trkpt>
      <trkpt lat="46.78866" lon="-0.86735">
        <ele>147.9</ele>
        <time>2023-10-25T05:35:28Z</time>
      </trkpt>
      <trkpt lat="46.78858" lon="-0.86708">
        <ele>148.7</ele>
        <time>2023-10-25T05:35:34Z</time>
      </trkpt>
      <trkpt lat="46.78854" lon="-0.86679">
        <ele>149.3</ele>
        <time>2023-10-25T05:35:40Z</time>
      </trkpt>
      <trkpt lat="46.7885" lon="-0.8665">
        <ele>149.4</ele>
        <time>2023-10-25T05:35:46Z</time>
      </trkpt>
      <trkpt lat="46.78839" lon="-0.86626">
        <ele>149</ele>
        <time>2023-10-25T05:35:52Z</time>
      </trkpt>
      <trkpt lat="46.78839" lon="-0.86598">
        <ele>148.7</ele>
        <time>2023-10-25T05:35:59Z</time>
      </trkpt>
      <trkpt lat="46.78846" lon="-0.8657">
        <ele>149.1</ele>
        <time>2023-10-25T05:36:05Z</time>
      </trkpt>
      <trkpt lat="46.78857" lon="-0.86546">
        <ele>150.3</ele>
        <time>2023-10-25T05:36:12Z</time>
      </trkpt>
      <trkpt lat="46.78865" lon="-0.86521">
        <ele>151.8</ele>
        <time>2023-10-25T05:36:19Z</time>
      </trkpt>
      <trkpt lat="46.78873" lon="-0.86497">
        <ele>153.3</ele>
        <time>2023-10-25T05:36:26Z</time>
      </trkpt>
      <trkpt lat="46.78888" lon="-0.86479">
        <ele>154.9</ele>
        <time>2023-10-25T05:36:34Z</time>
      </trkpt>
      <trkpt lat="46.78907" lon="-0.86481">
        <ele>156.5</ele>
        <time>2023-10-25T05:36:41Z</time>
      </trkpt>
      <trkpt lat="46.78923" lon="-0.86495">
        <ele>158.1</ele>
        <time>2023-10-25T05:36:48Z</time>
      </trkpt>
      <trkpt lat="46.78935" lon="-0.86519">
        <ele>159.9</ele>
        <time>2023-10-25T05:36:56Z</time>
      </trkpt>
      <trkpt lat="46.78946" lon="-0.86543">
        <ele>161.6</ele>
        <time>2023-10-25T05:37:04Z</time>
      </trkpt>
      <trkpt lat="46.78958" lon="-0.86567">
        <ele>163.3</ele>
        <time>2023-10-25T05:37:12Z</time>
      </trkpt>
      <trkpt lat="46.78969" lon="-0.8659">
        <ele>165</ele>
        <time>2023-10-25T05:37:19Z</time>
      </trkpt>
      <trkpt lat="46.78986" lon="-0.86594">
        <ele>166.7</ele>
        <time>2023-10-25T05:37:27Z</time>
      </trkpt>
      <trkpt lat="46.79002" lon="-0.86582">
        <ele>168.4</ele>
        <time>2023-10-25T05:37:35Z</time>
      </trkpt>
      <trkpt lat="46.79019" lon="-0.86564">
        <ele>170.1</ele>
        <time>2023-10-25T05:37:43Z</time>
      </trkpt>
      <trkpt lat="46.79035" lon="-0.86547">
        <ele>171.7</ele>
        <time>2023-10-25T05:37:51Z</time>
      </trkpt>
      <trkpt lat="46.79048" lon="-0.86529">
        <ele>173.3</ele>
        <time>2023-10-25T05:37:58Z</time>
      </trkpt>
      <trkpt lat="46.79063" lon="-0.86508">
        <ele>175.1</ele>
        <time>2023-10-25T05:38:06Z</time>
      </trkpt>
      <trkpt lat="46.79077" lon="-0.86486">
        <ele>177.1</ele>
        <time>2023-10-25T05:38:14Z</time>
      </trkpt>
      <trkpt lat="46.79086" lon="-0.86461">
        <ele>179.1</ele>
        <time>2023-10-25T05:38:22Z</time>
      </trkpt>
      <trkpt lat="46.79093" lon="-0.86437">
        <ele>180.5</ele>
        <time>2023-10-25T05:38:30Z</time>
      </trkpt>
      <trkpt lat="46.79104" lon="-0.86413">
        <ele>181.4</ele>
        <time>2023-10-25T05:38:37Z</time>
      </trkpt>
      <trkpt lat="46.79114" lon="-0.86392">
        <ele>181.8</ele>
        <time>2023-10-25T05:38:43Z</time>
      </trkpt>
      <trkpt lat="46.79124" lon="-0.86365">
        <ele>182.1</ele>
        <time>2023-10-25T05:38:50Z</time>
      </trkpt>
      <trkpt lat="46.79135" lon="-0.8634">
        <ele>182.7</ele>
        <time>2023-10-25T05:38:57Z</time>
      </trkpt>
      <trkpt lat="46.79145" lon="-0.86315">
        <ele>183.3</ele>
        <time>2023-10-25T05:39:04Z</time>
      </trkpt>
      <trkpt lat="46.79154" lon="-0.86291">
        <ele>183.9</ele>
        <time>2023-10-25T05:39:11Z</time>
      </trkpt>
      <trkpt lat="46.79163" lon="-0.86268">
        <ele>184.2</ele>
        <time>2023-10-25T05:39:18Z</time>
      </trkpt>
      <trkpt lat="46.7917" lon="-0.86242">
        <ele>184.2</ele>
        <time>2023-10-25T05:39:25Z</time>
      </trkpt>
      <trkpt lat="46.79174" lon="-0.86214">
        <ele>184.2</ele>
        <time>2023-10-25T05:39:31Z</time>
      </trkpt>
      <trkpt lat="46.79176" lon="-0.86185">
        <ele>184.2</ele>
        <time>2023-10-25T05:39:37Z</time>
      </trkpt>
      <trkpt lat="46.79179" lon="-0.86156">
        <ele>184</ele>
        <time>2023-10-25T05:39:43Z</time>
      </trkpt>
      <trkpt lat="46.7918" lon="-0.86127">
        <ele>183.9</ele>
        <time>2023-10-25T05:39:49Z</time>
      </trkpt>
      <trkpt lat="46.79181" lon="-0.86097">
        <ele>183.9</ele>
        <time>2023-10-25T05:39:56Z</time>
      </trkpt>
      <trkpt lat="46.79182" lon="-0.86068">
        <ele>184</ele>
        <time>2023-10-25T05:40:03Z</time>
      </trkpt>
      <trkpt lat="46.79179" lon="-0.8604">
        <ele>184.2</ele>
        <time>2023-10-25T05:40:10Z</time>
      </trkpt>
      <trkpt lat="46.79177" lon="-0.86013">
        <ele>184.5</ele>
        <time>2023-10-25T05:40:17Z</time>
      </trkpt>
      <trkpt lat="46.79177" lon="-0.85984">
        <ele>184.7</ele>
        <time>2023-10-25T05:40:24Z</time>
      </trkpt>
      <trkpt lat="46.79176" lon="-0.85955">
        <ele>185.1</ele>
        <time>2023-10-25T05:40:30Z</time>
      </trkpt>
      <trkpt lat="46.79174" lon="-0.85927">
        <ele>185.5</ele>
        <time>2023-10-25T05:40:36Z</time>
      </trkpt>
      <trkpt lat="46.79173" lon="-0.859">
        <ele>186.1</ele>
        <time>2023-10-25T05:40:42Z</time>
      </trkpt>
      <trkpt lat="46.79171" lon="-0.85872">
        <ele>187</ele>
        <time>2023-10-25T05:40:48Z</time>
      </trkpt>
      <trkpt lat="46.79164" lon="-0.85845">
        <ele>188.5</ele>
        <time>2023-10-25T05:40:55Z</time>
      </trkpt>
      <trkpt lat="46.79152" lon="-0.85826">
        <ele>190.3</ele>
        <time>2023-10-25T05:41:02Z</time>
      </trkpt>
      <trkpt lat="46.79139" lon="-0.85807">
        <ele>191.8</ele>
        <time>2023-10-25T05:41:10Z</time>
      </trkpt>
      <trkpt lat="46.7912" lon="-0.85797">
        <ele>192.4</ele>
        <time>2023-10-25T05:41:17Z</time>
      </trkpt>
      <trkpt lat="46.79103" lon="-0.85786">
        <ele>192.7</ele>
        <time>2023-10-25T05:41:23Z</time>
      </trkpt>
      <trkpt lat="46.79086" lon="-0.85768">
        <ele>193.2</ele>
        <time>2023-10-25T05:41:29Z</time>
      </trkpt>
      <trkpt lat="46.7907" lon="-0.85752">
        <ele>193.7</ele>
        <time>2023-10-25T05:41:35Z</time>
      </trkpt>
      <trkpt lat="46.79054" lon="-0.85738">
        <ele>194.4</ele>
        <time>2023-10-25T05:41:42Z</time>
      </trkpt>
      <trkpt lat="46.79037" lon="-0.85725">
        <ele>195.3</ele>
        <time>2023-10-25T05:41:50Z</time>
      </trkpt>
      <trkpt lat="46.7902" lon="-0.85713">
        <ele>196.4</ele>
        <time>2023-10-25T05:41:58Z</time>
      </trkpt>
      <trkpt lat="46.79005" lon="-0.85695">
        <ele>197.6</ele>
        <time>2023-10-25T05:42:06Z</time>
      </trkpt>
      <trkpt lat="46.7899" lon="-0.85678">
        <ele>198.8</ele>
        <time>2023-10-25T05:42:14Z</time>
      </trkpt>
      <trkpt lat="46.7898" lon="-0.85653">
        <ele>199.7</ele>
        <time>2023-10-25T05:42:20Z</time>
      </trkpt>
      <trkpt lat="46.78988" lon="-0.85627">
        <ele>200.1</ele>
        <time>2023-10-25T05:42:27Z</time>
      </trkpt>
      <trkpt lat="46.78997" lon="-0.85604">
        <ele>200.7</ele>
        <time>2023-10-25T05:42:34Z</time>
      </trkpt>
      <trkpt lat="46.79007" lon="-0.85581">
        <ele>201.5</ele>
        <time>2023-10-25T05:42:41Z</time>
      </trkpt>
      <trkpt lat="46.79017" lon="-0.85558">
        <ele>202.4</ele>
        <time>2023-10-25T05:42:48Z</time>
      </trkpt>
      <trkpt lat="46.79031" lon="-0.85535">
        <ele>203.4</ele>
        <time>2023-10-25T05:42:57Z</time>
      </trkpt>
      <trkpt lat="46.79044" lon="-0.85516">
        <ele>204.5</ele>
        <time>2023-10-25T05:43:05Z</time>
      </trkpt>
      <trkpt lat="46.79058" lon="-0.85497">
        <ele>205.7</ele>
        <time>2023-10-25T05:43:13Z</time>
      </trkpt>
      <trkpt lat="46.79071" lon="-0.85477">
        <ele>206.9</ele>
        <time>2023-10-25T05:43:21Z</time>
      </trkpt>
      <trkpt lat="46.79083" lon="-0.85456">
        <ele>208.4</ele>
        <time>2023-10-25T05:43:29Z</time>
      </trkpt>
      <trkpt lat="46.79095" lon="-0.85437">
        <ele>210.4</ele>
        <time>2023-10-25T05:43:37Z</time>
      </trkpt>
      <trkpt lat="46.79109" lon="-0.85417">
        <ele>212.7</ele>
        <time>2023-10-25T05:43:47Z</time>
      </trkpt>
      <trkpt lat="46.79121" lon="-0.85396">
        <ele>214.7</ele>
        <time>2023-10-25T05:43:57Z</time>
      </trkpt>
      <trkpt lat="46.79136" lon="-0.85381">
        <ele>216.6</ele>
        <time>2023-10-25T05:44:09Z</time>
      </trkpt>
      <trkpt lat="46.79151" lon="-0.85361">
        <ele>218.9</ele>
        <time>2023-10-25T05:44:19Z</time>
      </trkpt>
      <trkpt lat="46.79165" lon="-0.85338">
        <ele>221.5</ele>
        <time>2023-10-25T05:44:26Z</time>
      </trkpt>
      <trkpt lat="46.79174" lon="-0.85313">
        <ele>224</ele>
        <time>2023-10-25T05:44:35Z</time>
      </trkpt>
      <trkpt lat="46.79183" lon="-0.85288">
        <ele>226.3</ele>
        <time>2023-10-25T05:44:46Z</time>
      </trkpt>
      <trkpt lat="46.79191" lon="-0.85265">
        <ele>228.6</ele>
        <time>2023-10-25T05:44:56Z</time>
      </trkpt>
      <trkpt lat="46.79199" lon="-0.85241">
        <ele>231.3</ele>
        <time>2023-10-25T05:45:03Z</time>
      </trkpt>
      <trkpt lat="46.79202" lon="-0.85214">
        <ele>234.7</ele>
        <time>2023-10-25T05:45:12Z</time>
      </trkpt>
      <trkpt lat="46.79201" lon="-0.85187">
        <ele>238</ele>
        <time>2023-10-25T05:45:21Z</time>
      </trkpt>
      <trkpt lat="46.79199" lon="-0.85179">
        <ele>238.9</ele>
        <time>2023-10-25T05:45:24Z</time>
      </trkpt>
      <trkpt lat="46.79197" lon="-0.85174">
        <ele>239.5</ele>
        <time>2023-10-25T05:45:33Z</time>
      </trkpt>
      <trkpt lat="46.79196" lon="-0.85166">
        <ele>240.1</ele>
        <time>2023-10-25T05:45:35Z</time>
      </trkpt>
      <trkpt lat="46.79194" lon="-0.85138">
        <ele>241.7</ele>
        <time>2023-10-25T05:45:41Z</time>
      </trkpt>
      <trkpt lat="46.79194" lon="-0.85109">
        <ele>244.1</ele>
        <time>2023-10-25T05:45:49Z</time>
      </trkpt>
      <trkpt lat="46.79196" lon="-0.85082">
        <ele>246.3</ele>
        <time>2023-10-25T05:45:57Z</time>
      </trkpt>
      <trkpt lat="46.792" lon="-0.85054">
        <ele>248.7</ele>
        <time>2023-10-25T05:46:06Z</time>
      </trkpt>
      <trkpt lat="46.79205" lon="-0.85027">
        <ele>250.9</ele>
        <time>2023-10-25T05:46:14Z</time>
      </trkpt>
      <trkpt lat="46.7921" lon="-0.85">
        <ele>252.7</ele>
        <time>2023-10-25T05:46:21Z</time>
      </trkpt>
      <trkpt lat="46.79211" lon="-0.84973">
        <ele>254</ele>
        <time>2023-10-25T05:46:28Z</time>
      </trkpt>
      <trkpt lat="46.79211" lon="-0.84944">
        <ele>254.6</ele>
        <time>2023-10-25T05:46:35Z</time>
      </trkpt>
      <trkpt lat="46.792" lon="-0.84927">
        <ele>254.5</ele>
        <time>2023-10-25T05:46:43Z</time>
      </trkpt>
      <trkpt lat="46.79182" lon="-0.84919">
        <ele>252.6</ele>
        <time>2023-10-25T05:46:50Z</time>
      </trkpt>
      <trkpt lat="46.79181" lon="-0.84917">
        <ele>252.3</ele>
        <time>2023-10-25T05:46:51Z</time>
      </trkpt>
      <trkpt lat="46.79168" lon="-0.84896">
        <ele>249.4</ele>
        <time>2023-10-25T05:46:58Z</time>
      </trkpt>
      <trkpt lat="46.79152" lon="-0.84877">
        <ele>247.2</ele>
        <time>2023-10-25T05:47:06Z</time>
      </trkpt>
      <trkpt lat="46.79134" lon="-0.84863">
        <ele>245</ele>
        <time>2023-10-25T05:47:13Z</time>
      </trkpt>
      <trkpt lat="46.79118" lon="-0.84849">
        <ele>242.2</ele>
        <time>2023-10-25T05:47:19Z</time>
      </trkpt>
      <trkpt lat="46.791" lon="-0.84835">
        <ele>239.3</ele>
        <time>2023-10-25T05:47:25Z</time>
      </trkpt>
      <trkpt lat="46.79084" lon="-0.84817">
        <ele>236.5</ele>
        <time>2023-10-25T05:47:32Z</time>
      </trkpt>
      <trkpt lat="46.79071" lon="-0.84797">
        <ele>234.5</ele>
        <time>2023-10-25T05:47:39Z</time>
      </trkpt>
      <trkpt lat="46.79058" lon="-0.84772">
        <ele>233.4</ele>
        <time>2023-10-25T05:47:48Z</time>
      </trkpt>
      <trkpt lat="46.79043" lon="-0.84754">
        <ele>232.9</ele>
        <time>2023-10-25T05:47:54Z</time>
      </trkpt>
      <trkpt lat="46.79026" lon="-0.84736">
        <ele>232.2</ele>
        <time>2023-10-25T05:47:59Z</time>
      </trkpt>
      <trkpt lat="46.79004" lon="-0.84721">
        <ele>230.7</ele>
        <time>2023-10-25T05:48:04Z</time>
      </trkpt>
      <trkpt lat="46.78987" lon="-0.8471">
        <ele>229.3</ele>
        <time>2023-10-25T05:48:08Z</time>
      </trkpt>
      <trkpt lat="46.78973" lon="-0.84691">
        <ele>227.6</ele>
        <time>2023-10-25T05:48:13Z</time>
      </trkpt>
      <trkpt lat="46.78958" lon="-0.84676">
        <ele>225.7</ele>
        <time>2023-10-25T05:48:19Z</time>
      </trkpt>
      <trkpt lat="46.78941" lon="-0.84658">
        <ele>223.4</ele>
        <time>2023-10-25T05:48:27Z</time>
      </trkpt>
      <trkpt lat="46.78933" lon="-0.8463">
        <ele>223</ele>
        <time>2023-10-25T05:48:34Z</time>
      </trkpt>
      <trkpt lat="46.78932" lon="-0.8462">
        <ele>225.1</ele>
        <time>2023-10-25T05:48:40Z</time>
      </trkpt>
      <trkpt lat="46.78933" lon="-0.84614">
        <ele>226.7</ele>
        <time>2023-10-25T05:48:43Z</time>
      </trkpt>
      <trkpt lat="46.78932" lon="-0.84604">
        <ele>229.6</ele>
        <time>2023-10-25T05:48:49Z</time>
      </trkpt>
      <trkpt lat="46.78931" lon="-0.84599">
        <ele>230.9</ele>
        <time>2023-10-25T05:48:53Z</time>
      </trkpt>
      <trkpt lat="46.78932" lon="-0.84595">
        <ele>232.1</ele>
        <time>2023-10-25T05:48:56Z</time>
      </trkpt>
      <trkpt lat="46.78933" lon="-0.84594">
        <ele>232.6</ele>
        <time>2023-10-25T05:48:58Z</time>
      </trkpt>
      <trkpt lat="46.78933" lon="-0.84594">
        <ele>232.8</ele>
        <time>2023-10-25T05:49:00Z</time>
      </trkpt>
      <trkpt lat="46.78937" lon="-0.8459">
        <ele>234.4</ele>
        <time>2023-10-25T05:49:03Z</time>
      </trkpt>
      <trkpt lat="46.78944" lon="-0.84571">
        <ele>238.1</ele>
        <time>2023-10-25T05:49:19Z</time>
      </trkpt>
      <trkpt lat="46.78947" lon="-0.84572">
        <ele>238.6</ele>
        <time>2023-10-25T05:49:22Z</time>
      </trkpt>
      <trkpt lat="46.78963" lon="-0.84588">
        <ele>239.6</ele>
        <time>2023-10-25T05:49:32Z</time>
      </trkpt>
      <trkpt lat="46.78968" lon="-0.84588">
        <ele>240.3</ele>
        <time>2023-10-25T05:49:36Z</time>
      </trkpt>
      <trkpt lat="46.78972" lon="-0.84586">
        <ele>241.3</ele>
        <time>2023-10-25T05:49:41Z</time>
      </trkpt>
      <trkpt lat="46.78977" lon="-0.84584">
        <ele>242.7</ele>
        <time>2023-10-25T05:49:45Z</time>
      </trkpt>
      <trkpt lat="46.78992" lon="-0.84567">
        <ele>248.4</ele>
        <time>2023-10-25T05:50:00Z</time>
      </trkpt>
      <trkpt lat="46.7899" lon="-0.84557">
        <ele>250.1</ele>
        <time>2023-10-25T05:50:05Z</time>
      </trkpt>
      <trkpt lat="46.78989" lon="-0.84552">
        <ele>250.9</ele>
        <time>2023-10-25T05:50:08Z</time>
      </trkpt>
      <trkpt lat="46.7899" lon="-0.84548">
        <ele>251.5</ele>
        <time>2023-10-25T05:50:10Z</time>
      </trkpt>
      <trkpt lat="46.78997" lon="-0.8452">
        <ele>255.4</ele>
        <time>2023-10-25T05:50:21Z</time>
      </trkpt>
      <trkpt lat="46.78995" lon="-0.84493">
        <ele>258.7</ele>
        <time>2023-10-25T05:50:31Z</time>
      </trkpt>
      <trkpt lat="46.78998" lon="-0.84467">
        <ele>260.6</ele>
        <time>2023-10-25T05:50:40Z</time>
      </trkpt>
      <trkpt lat="46.79013" lon="-0.8445">
        <ele>262.4</ele>
        <time>2023-10-25T05:50:49Z</time>
      </trkpt>
      <trkpt lat="46.7902" lon="-0.84424">
        <ele>263.7</ele>
        <time>2023-10-25T05:50:57Z</time>
      </trkpt>
      <trkpt lat="46.79012" lon="-0.84397">
        <ele>263.7</ele>
        <time>2023-10-25T05:51:07Z</time>
      </trkpt>
      <trkpt lat="46.79006" lon="-0.84369">
        <ele>264.6</ele>
        <time>2023-10-25T05:51:17Z</time>
      </trkpt>
      <trkpt lat="46.78999" lon="-0.84342">
        <ele>266.3</ele>
        <time>2023-10-25T05:51:28Z</time>
      </trkpt>
      <trkpt lat="46.78986" lon="-0.84324">
        <ele>267.9</ele>
        <time>2023-10-25T05:51:36Z</time>
      </trkpt>
      <trkpt lat="46.78969" lon="-0.84308">
        <ele>270.3</ele>
        <time>2023-10-25T05:51:47Z</time>
      </trkpt>
      <trkpt lat="46.78952" lon="-0.84293">
        <ele>273.2</ele>
        <time>2023-10-25T05:51:54Z</time>
      </trkpt>
      <trkpt lat="46.78936" lon="-0.84276">
        <ele>276.1</ele>
        <time>2023-10-25T05:52:03Z</time>
      </trkpt>
      <trkpt lat="46.78923" lon="-0.84254">
        <ele>278.2</ele>
        <time>2023-10-25T05:52:12Z</time>
      </trkpt>
      <trkpt lat="46.78909" lon="-0.84237">
        <ele>278.4</ele>
        <time>2023-10-25T05:52:20Z</time>
      </trkpt>
      <trkpt lat="46.78907" lon="-0.84235">
        <ele>278.4</ele>
        <time>2023-10-25T05:52:21Z</time>
      </trkpt>
      <trkpt lat="46.78892" lon="-0.84218">
        <ele>277.4</ele>
        <time>2023-10-25T05:52:34Z</time>
      </trkpt>
      <trkpt lat="46.78885" lon="-0.84242">
        <ele>277.5</ele>
        <time>2023-10-25T05:52:43Z</time>
      </trkpt>
      <trkpt lat="46.78875" lon="-0.84267">
        <ele>277.3</ele>
        <time>2023-10-25T05:52:49Z</time>
      </trkpt>
      <trkpt lat="46.78867" lon="-0.84294">
        <ele>277.2</ele>
        <time>2023-10-25T05:52:56Z</time>
      </trkpt>
      <trkpt lat="46.78863" lon="-0.84303">
        <ele>277.3</ele>
        <time>2023-10-25T05:53:07Z</time>
      </trkpt>
      <trkpt lat="46.78868" lon="-0.84278">
        <ele>277.3</ele>
        <time>2023-10-25T05:53:15Z</time>
      </trkpt>
      <trkpt lat="46.78877" lon="-0.84251">
        <ele>277.5</ele>
        <time>2023-10-25T05:53:23Z</time>
      </trkpt>
      <trkpt lat="46.78884" lon="-0.84225">
        <ele>277.5</ele>
        <time>2023-10-25T05:53:30Z</time>
      </trkpt>
      <trkpt lat="46.78876" lon="-0.842">
        <ele>277.3</ele>
        <time>2023-10-25T05:53:40Z</time>
      </trkpt>
      <trkpt lat="46.78869" lon="-0.84173">
        <ele>276.7</ele>
        <time>2023-10-25T05:53:50Z</time>
      </trkpt>
      <trkpt lat="46.78857" lon="-0.84149">
        <ele>275.8</ele>
        <time>2023-10-25T05:53:56Z</time>
      </trkpt>
      <trkpt lat="46.78852" lon="-0.84124">
        <ele>275</ele>
        <time>2023-10-25T05:54:03Z</time>
      </trkpt>
      <trkpt lat="46.78845" lon="-0.84098">
        <ele>274.1</ele>
        <time>2023-10-25T05:54:10Z</time>
      </trkpt>
      <trkpt lat="46.78836" lon="-0.84075">
        <ele>272.7</ele>
        <time>2023-10-25T05:54:15Z</time>
      </trkpt>
      <trkpt lat="46.78826" lon="-0.84048">
        <ele>270.8</ele>
        <time>2023-10-25T05:54:22Z</time>
      </trkpt>
      <trkpt lat="46.78816" lon="-0.84022">
        <ele>269</ele>
        <time>2023-10-25T05:54:28Z</time>
      </trkpt>
      <trkpt lat="46.78805" lon="-0.83997">
        <ele>266.7</ele>
        <time>2023-10-25T05:54:35Z</time>
      </trkpt>
      <trkpt lat="46.78795" lon="-0.83972">
        <ele>264.2</ele>
        <time>2023-10-25T05:54:41Z</time>
      </trkpt>
      <trkpt lat="46.78784" lon="-0.8396">
        <ele>261</ele>
        <time>2023-10-25T05:54:46Z</time>
      </trkpt>
      <trkpt lat="46.78765" lon="-0.83964">
        <ele>260.8</ele>
        <time>2023-10-25T05:54:53Z</time>
      </trkpt>
      <trkpt lat="46.78745" lon="-0.83968">
        <ele>260.6</ele>
        <time>2023-10-25T05:55:01Z</time>
      </trkpt>
      <trkpt lat="46.78725" lon="-0.83959">
        <ele>257.1</ele>
        <time>2023-10-25T05:55:07Z</time>
      </trkpt>
      <trkpt lat="46.78707" lon="-0.83949">
        <ele>254</ele>
        <time>2023-10-25T05:55:12Z</time>
      </trkpt>
      <trkpt lat="46.78692" lon="-0.83933">
        <ele>250.4</ele>
        <time>2023-10-25T05:55:21Z</time>
      </trkpt>
      <trkpt lat="46.78687" lon="-0.83924">
        <ele>249.1</ele>
        <time>2023-10-25T05:55:24Z</time>
      </trkpt>
      <trkpt lat="46.78669" lon="-0.83911">
        <ele>247</ele>
        <time>2023-10-25T05:55:30Z</time>
      </trkpt>
      <trkpt lat="46.78652" lon="-0.83902">
        <ele>244.5</ele>
        <time>2023-10-25T05:55:36Z</time>
      </trkpt>
      <trkpt lat="46.78639" lon="-0.83901">
        <ele>244.5</ele>
        <time>2023-10-25T05:55:40Z</time>
      </trkpt>
      <trkpt lat="46.78629" lon="-0.83923">
        <ele>243.7</ele>
        <time>2023-10-25T05:55:46Z</time>
      </trkpt>
      <trkpt lat="46.78618" lon="-0.83947">
        <ele>242.4</ele>
        <time>2023-10-25T05:55:53Z</time>
      </trkpt>
      <trkpt lat="46.78602" lon="-0.83932">
        <ele>242.4</ele>
        <time>2023-10-25T05:55:59Z</time>
      </trkpt>
      <trkpt lat="46.78595" lon="-0.83905">
        <ele>242.5</ele>
        <time>2023-10-25T05:56:05Z</time>
      </trkpt>
      <trkpt lat="46.78583" lon="-0.83883">
        <ele>242.7</ele>
        <time>2023-10-25T05:56:11Z</time>
      </trkpt>
      <trkpt lat="46.78566" lon="-0.83869">
        <ele>241.5</ele>
        <time>2023-10-25T05:56:17Z</time>
      </trkpt>
      <trkpt lat="46.78549" lon="-0.83859">
        <ele>241.6</ele>
        <time>2023-10-25T05:56:25Z</time>
      </trkpt>
      <trkpt lat="46.7853" lon="-0.83861">
        <ele>241.8</ele>
        <time>2023-10-25T05:56:32Z</time>
      </trkpt>
      <trkpt lat="46.78514" lon="-0.83873">
        <ele>242.1</ele>
        <time>2023-10-25T05:56:40Z</time>
      </trkpt>
      <trkpt lat="46.78497" lon="-0.83882">
        <ele>242.9</ele>
        <time>2023-10-25T05:56:47Z</time>
      </trkpt>
      <trkpt lat="46.7848" lon="-0.83897">
        <ele>243.6</ele>
        <time>2023-10-25T05:56:54Z</time>
      </trkpt>
      <trkpt lat="46.78463" lon="-0.83909">
        <ele>242.2</ele>
        <time>2023-10-25T05:57:00Z</time>
      </trkpt>
      <trkpt lat="46.78453" lon="-0.83912">
        <ele>241.4</ele>
        <time>2023-10-25T05:57:04Z</time>
      </trkpt>
      <trkpt lat="46.78437" lon="-0.83892">
        <ele>238.6</ele>
        <time>2023-10-25T05:57:12Z</time>
      </trkpt>
      <trkpt lat="46.78418" lon="-0.83879">
        <ele>236.2</ele>
        <time>2023-10-25T05:57:18Z</time>
      </trkpt>
      <trkpt lat="46.784" lon="-0.83875">
        <ele>233.9</ele>
        <time>2023-10-25T05:57:23Z</time>
      </trkpt>
      <trkpt lat="46.78387" lon="-0.83886">
        <ele>229.4</ele>
        <time>2023-10-25T05:57:28Z</time>
      </trkpt>
      <trkpt lat="46.78372" lon="-0.83867">
        <ele>228.5</ele>
        <time>2023-10-25T05:57:34Z</time>
      </trkpt>
      <trkpt lat="46.78353" lon="-0.83853">
        <ele>227.7</ele>
        <time>2023-10-25T05:57:40Z</time>
      </trkpt>
      <trkpt lat="46.78333" lon="-0.83842">
        <ele>222.5</ele>
        <time>2023-10-25T05:57:46Z</time>
      </trkpt>
      <trkpt lat="46.78314" lon="-0.83839">
        <ele>221.2</ele>
        <time>2023-10-25T05:57:52Z</time>
      </trkpt>
      <trkpt lat="46.78295" lon="-0.83842">
        <ele>219.9</ele>
        <time>2023-10-25T05:57:58Z</time>
      </trkpt>
      <trkpt lat="46.78276" lon="-0.83849">
        <ele>217</ele>
        <time>2023-10-25T05:58:03Z</time>
      </trkpt>
      <trkpt lat="46.78257" lon="-0.83852">
        <ele>214.2</ele>
        <time>2023-10-25T05:58:08Z</time>
      </trkpt>
      <trkpt lat="46.78237" lon="-0.83856">
        <ele>211</ele>
        <time>2023-10-25T05:58:14Z</time>
      </trkpt>
      <trkpt lat="46.78217" lon="-0.83852">
        <ele>207.7</ele>
        <time>2023-10-25T05:58:19Z</time>
      </trkpt>
      <trkpt lat="46.78197" lon="-0.83843">
        <ele>204</ele>
        <time>2023-10-25T05:58:24Z</time>
      </trkpt>
      <trkpt lat="46.78177" lon="-0.83832">
        <ele>202.9</ele>
        <time>2023-10-25T05:58:30Z</time>
      </trkpt>
      <trkpt lat="46.78157" lon="-0.83834">
        <ele>202</ele>
        <time>2023-10-25T05:58:35Z</time>
      </trkpt>
      <trkpt lat="46.78138" lon="-0.83849">
        <ele>200.7</ele>
        <time>2023-10-25T05:58:41Z</time>
      </trkpt>
      <trkpt lat="46.78121" lon="-0.83868">
        <ele>199.7</ele>
        <time>2023-10-25T05:58:48Z</time>
      </trkpt>
      <trkpt lat="46.78105" lon="-0.83885">
        <ele>199</ele>
        <time>2023-10-25T05:58:54Z</time>
      </trkpt>
      <trkpt lat="46.78087" lon="-0.83894">
        <ele>198.5</ele>
        <time>2023-10-25T05:59:00Z</time>
      </trkpt>
      <trkpt lat="46.78068" lon="-0.83905">
        <ele>198</ele>
        <time>2023-10-25T05:59:06Z</time>
      </trkpt>
      <trkpt lat="46.7805" lon="-0.83916">
        <ele>197.5</ele>
        <time>2023-10-25T05:59:11Z</time>
      </trkpt>
      <trkpt lat="46.78031" lon="-0.83925">
        <ele>196.9</ele>
        <time>2023-10-25T05:59:17Z</time>
      </trkpt>
      <trkpt lat="46.7801" lon="-0.83934">
        <ele>196.1</ele>
        <time>2023-10-25T05:59:23Z</time>
      </trkpt>
      <trkpt lat="46.77991" lon="-0.83946">
        <ele>195.2</ele>
        <time>2023-10-25T05:59:29Z</time>
      </trkpt>
      <trkpt lat="46.77974" lon="-0.83956">
        <ele>194.5</ele>
        <time>2023-10-25T05:59:34Z</time>
      </trkpt>
      <trkpt lat="46.77956" lon="-0.83964">
        <ele>193.8</ele>
        <time>2023-10-25T05:59:39Z</time>
      </trkpt>
      <trkpt lat="46.7794" lon="-0.83975">
        <ele>193.3</ele>
        <time>2023-10-25T05:59:44Z</time>
      </trkpt>
      <trkpt lat="46.77921" lon="-0.83989">
        <ele>192.8</ele>
        <time>2023-10-25T05:59:50Z</time>
      </trkpt>
      <trkpt lat="46.77903" lon="-0.84003">
        <ele>192.2</ele>
        <time>2023-10-25T05:59:56Z</time>
      </trkpt>
      <trkpt lat="46.77885" lon="-0.8402">
        <ele>191.4</ele>
        <time>2023-10-25T06:00:02Z</time>
      </trkpt>
      <trkpt lat="46.77867" lon="-0.84035">
        <ele>190.7</ele>
        <time>2023-10-25T06:00:08Z</time>
      </trkpt>
      <trkpt lat="46.77852" lon="-0.84051">
        <ele>189.5</ele>
        <time>2023-10-25T06:00:14Z</time>
      </trkpt>
      <trkpt lat="46.77838" lon="-0.8407">
        <ele>188.2</ele>
        <time>2023-10-25T06:00:20Z</time>
      </trkpt>
      <trkpt lat="46.77826" lon="-0.84092">
        <ele>186.9</ele>
        <time>2023-10-25T06:00:26Z</time>
      </trkpt>
      <trkpt lat="46.77814" lon="-0.84116">
        <ele>185.6</ele>
        <time>2023-10-25T06:00:32Z</time>
      </trkpt>
      <trkpt lat="46.77806" lon="-0.8414">
        <ele>184.4</ele>
        <time>2023-10-25T06:00:37Z</time>
      </trkpt>
      <trkpt lat="46.77799" lon="-0.84164">
        <ele>184</ele>
        <time>2023-10-25T06:00:42Z</time>
      </trkpt>
      <trkpt lat="46.77793" lon="-0.8419">
        <ele>183.4</ele>
        <time>2023-10-25T06:00:47Z</time>
      </trkpt>
      <trkpt lat="46.77788" lon="-0.84219">
        <ele>181.9</ele>
        <time>2023-10-25T06:00:53Z</time>
      </trkpt>
      <trkpt lat="46.77776" lon="-0.84241">
        <ele>181.1</ele>
        <time>2023-10-25T06:01:00Z</time>
      </trkpt>
      <trkpt lat="46.77758" lon="-0.84259">
        <ele>178.6</ele>
        <time>2023-10-25T06:01:06Z</time>
      </trkpt>
      <trkpt lat="46.77743" lon="-0.84274">
        <ele>177</ele>
        <time>2023-10-25T06:01:11Z</time>
      </trkpt>
      <trkpt lat="46.77728" lon="-0.8429">
        <ele>176</ele>
        <time>2023-10-25T06:01:16Z</time>
      </trkpt>
      <trkpt lat="46.77714" lon="-0.84312">
        <ele>174.7</ele>
        <time>2023-10-25T06:01:22Z</time>
      </trkpt>
      <trkpt lat="46.77702" lon="-0.84332">
        <ele>173.6</ele>
        <time>2023-10-25T06:01:28Z</time>
      </trkpt>
      <trkpt lat="46.77688" lon="-0.8435">
        <ele>172.8</ele>
        <time>2023-10-25T06:01:34Z</time>
      </trkpt>
      <trkpt lat="46.77674" lon="-0.84367">
        <ele>171.9</ele>
        <time>2023-10-25T06:01:40Z</time>
      </trkpt>
      <trkpt lat="46.77659" lon="-0.84384">
        <ele>171</ele>
        <time>2023-10-25T06:01:46Z</time>
      </trkpt>
      <trkpt lat="46.77641" lon="-0.84401">
        <ele>170.4</ele>
        <time>2023-10-25T06:01:52Z</time>
      </trkpt>
      <trkpt lat="46.77626" lon="-0.84417">
        <ele>169.6</ele>
        <time>2023-10-25T06:01:57Z</time>
      </trkpt>
      <trkpt lat="46.7761" lon="-0.84433">
        <ele>168.1</ele>
        <time>2023-10-25T06:02:02Z</time>
      </trkpt>
      <trkpt lat="46.77593" lon="-0.84453">
        <ele>166.7</ele>
        <time>2023-10-25T06:02:08Z</time>
      </trkpt>
      <trkpt lat="46.77579" lon="-0.84472">
        <ele>165.8</ele>
        <time>2023-10-25T06:02:14Z</time>
      </trkpt>
      <trkpt lat="46.77564" lon="-0.84491">
        <ele>164.7</ele>
        <time>2023-10-25T06:02:20Z</time>
      </trkpt>
      <trkpt lat="46.7755" lon="-0.8451">
        <ele>163.8</ele>
        <time>2023-10-25T06:02:26Z</time>
      </trkpt>
      <trkpt lat="46.77537" lon="-0.84531">
        <ele>163.7</ele>
        <time>2023-10-25T06:02:32Z</time>
      </trkpt>
      <trkpt lat="46.77526" lon="-0.84556">
        <ele>163.6</ele>
        <time>2023-10-25T06:02:39Z</time>
      </trkpt>
      <trkpt lat="46.77511" lon="-0.84569">
        <ele>162.2</ele>
        <time>2023-10-25T06:02:45Z</time>
      </trkpt>
      <trkpt lat="46.77502" lon="-0.84593">
        <ele>160.1</ele>
        <time>2023-10-25T06:02:51Z</time>
      </trkpt>
      <trkpt lat="46.77491" lon="-0.84618">
        <ele>158.3</ele>
        <time>2023-10-25T06:02:58Z</time>
      </trkpt>
      <trkpt lat="46.77478" lon="-0.84638">
        <ele>157.1</ele>
        <time>2023-10-25T06:03:05Z</time>
      </trkpt>
      <trkpt lat="46.77466" lon="-0.84661">
        <ele>154.9</ele>
        <time>2023-10-25T06:03:12Z</time>
      </trkpt>
      <trkpt lat="46.77454" lon="-0.84682">
        <ele>152.9</ele>
        <time>2023-10-25T06:03:18Z</time>
      </trkpt>
      <trkpt lat="46.7744" lon="-0.84702">
        <ele>151.6</ele>
        <time>2023-10-25T06:03:23Z</time>
      </trkpt>
      <trkpt lat="46.77424" lon="-0.84721">
        <ele>150.6</ele>
        <time>2023-10-25T06:03:28Z</time>
      </trkpt>
      <trkpt lat="46.7741" lon="-0.84744">
        <ele>149.5</ele>
        <time>2023-10-25T06:03:34Z</time>
      </trkpt>
      <trkpt lat="46.77402" lon="-0.84772">
        <ele>149</ele>
        <time>2023-10-25T06:03:40Z</time>
      </trkpt>
      <trkpt lat="46.77401" lon="-0.84801">
        <ele>149</ele>
        <time>2023-10-25T06:03:46Z</time>
      </trkpt>
      <trkpt lat="46.77388" lon="-0.84818">
        <ele>148.5</ele>
        <time>2023-10-25T06:03:52Z</time>
      </trkpt>
      <trkpt lat="46.77368" lon="-0.84824">
        <ele>146.8</ele>
        <time>2023-10-25T06:03:59Z</time>
      </trkpt>
      <trkpt lat="46.7735" lon="-0.84839">
        <ele>145.8</ele>
        <time>2023-10-25T06:04:06Z</time>
      </trkpt>
      <trkpt lat="46.77334" lon="-0.84856">
        <ele>145</ele>
        <time>2023-10-25T06:04:12Z</time>
      </trkpt>
      <trkpt lat="46.77321" lon="-0.84875">
        <ele>144.2</ele>
        <time>2023-10-25T06:04:18Z</time>
      </trkpt>
      <trkpt lat="46.77308" lon="-0.84896">
        <ele>143.3</ele>
        <time>2023-10-25T06:04:24Z</time>
      </trkpt>
      <trkpt lat="46.77294" lon="-0.84917">
        <ele>142.3</ele>
        <time>2023-10-25T06:04:30Z</time>
      </trkpt>
      <trkpt lat="46.77279" lon="-0.84939">
        <ele>141.4</ele>
        <time>2023-10-25T06:04:36Z</time>
      </trkpt>
      <trkpt lat="46.77264" lon="-0.8496">
        <ele>140.6</ele>
        <time>2023-10-25T06:04:42Z</time>
      </trkpt>
      <trkpt lat="46.7725" lon="-0.84979">
        <ele>139.9</ele>
        <time>2023-10-25T06:04:48Z</time>
      </trkpt>
      <trkpt lat="46.77236" lon="-0.85001">
        <ele>139.3</ele>
        <time>2023-10-25T06:04:55Z</time>
      </trkpt>
      <trkpt lat="46.77223" lon="-0.8502">
        <ele>138.8</ele>
        <time>2023-10-25T06:05:01Z</time>
      </trkpt>
      <trkpt lat="46.77211" lon="-0.85044">
        <ele>138.1</ele>
        <time>2023-10-25T06:05:07Z</time>
      </trkpt>
      <trkpt lat="46.77204" lon="-0.85068">
        <ele>137.5</ele>
        <time>2023-10-25T06:05:12Z</time>
      </trkpt>
      <trkpt lat="46.77198" lon="-0.85097">
        <ele>136.7</ele>
        <time>2023-10-25T06:05:18Z</time>
      </trkpt>
      <trkpt lat="46.7719" lon="-0.85125">
        <ele>135.9</ele>
        <time>2023-10-25T06:05:24Z</time>
      </trkpt>
      <trkpt lat="46.77181" lon="-0.85151">
        <ele>135.5</ele>
        <time>2023-10-25T06:05:30Z</time>
      </trkpt>
      <trkpt lat="46.7717" lon="-0.85174">
        <ele>135.4</ele>
        <time>2023-10-25T06:05:36Z</time>
      </trkpt>
      <trkpt lat="46.77156" lon="-0.85195">
        <ele>135.8</ele>
        <time>2023-10-25T06:05:42Z</time>
      </trkpt>
      <trkpt lat="46.77139" lon="-0.85212">
        <ele>136.8</ele>
        <time>2023-10-25T06:05:48Z</time>
      </trkpt>
      <trkpt lat="46.77123" lon="-0.85226">
        <ele>138</ele>
        <time>2023-10-25T06:05:54Z</time>
      </trkpt>
      <trkpt lat="46.77106" lon="-0.85241">
        <ele>139.4</ele>
        <time>2023-10-25T06:06:00Z</time>
      </trkpt>
      <trkpt lat="46.7709" lon="-0.85258">
        <ele>140.9</ele>
        <time>2023-10-25T06:06:06Z</time>
      </trkpt>
      <trkpt lat="46.77077" lon="-0.85278">
        <ele>142.2</ele>
        <time>2023-10-25T06:06:12Z</time>
      </trkpt>
      <trkpt lat="46.77067" lon="-0.85301">
        <ele>143.2</ele>
        <time>2023-10-25T06:06:18Z</time>
      </trkpt>
      <trkpt lat="46.77058" lon="-0.85325">
        <ele>143.7</ele>
        <time>2023-10-25T06:06:24Z</time>
      </trkpt>
      <trkpt lat="46.77047" lon="-0.85349">
        <ele>143.9</ele>
        <time>2023-10-25T06:06:30Z</time>
      </trkpt>
      <trkpt lat="46.77034" lon="-0.8537">
        <ele>143.9</ele>
        <time>2023-10-25T06:06:36Z</time>
      </trkpt>
      <trkpt lat="46.77017" lon="-0.85386">
        <ele>143.6</ele>
        <time>2023-10-25T06:06:42Z</time>
      </trkpt>
      <trkpt lat="46.76999" lon="-0.85401">
        <ele>143.4</ele>
        <time>2023-10-25T06:06:48Z</time>
      </trkpt>
      <trkpt lat="46.76979" lon="-0.85412">
        <ele>143.2</ele>
        <time>2023-10-25T06:06:54Z</time>
      </trkpt>
      <trkpt lat="46.7696" lon="-0.85426">
        <ele>143</ele>
        <time>2023-10-25T06:07:00Z</time>
      </trkpt>
      <trkpt lat="46.76942" lon="-0.85438">
        <ele>142.8</ele>
        <time>2023-10-25T06:07:06Z</time>
      </trkpt>
      <trkpt lat="46.76924" lon="-0.85451">
        <ele>142.7</ele>
        <time>2023-10-25T06:07:12Z</time>
      </trkpt>
      <trkpt lat="46.76907" lon="-0.85464">
        <ele>142.6</ele>
        <time>2023-10-25T06:07:18Z</time>
      </trkpt>
      <trkpt lat="46.76887" lon="-0.85477">
        <ele>142.5</ele>
        <time>2023-10-25T06:07:24Z</time>
      </trkpt>
      <trkpt lat="46.76868" lon="-0.8549">
        <ele>142.5</ele>
        <time>2023-10-25T06:07:30Z</time>
      </trkpt>
      <trkpt lat="46.7685" lon="-0.85502">
        <ele>142.5</ele>
        <time>2023-10-25T06:07:36Z</time>
      </trkpt>
      <trkpt lat="46.76832" lon="-0.85513">
        <ele>142.4</ele>
        <time>2023-10-25T06:07:42Z</time>
      </trkpt>
      <trkpt lat="46.76814" lon="-0.85526">
        <ele>142.4</ele>
        <time>2023-10-25T06:07:48Z</time>
      </trkpt>
      <trkpt lat="46.76797" lon="-0.85537">
        <ele>142.2</ele>
        <time>2023-10-25T06:07:54Z</time>
      </trkpt>
      <trkpt lat="46.76785" lon="-0.85555">
        <ele>141.8</ele>
        <time>2023-10-25T06:08:00Z</time>
      </trkpt>
      <trkpt lat="46.76786" lon="-0.8556">
        <ele>141.8</ele>
        <time>2023-10-25T06:08:01Z</time>
      </trkpt>
      <trkpt lat="46.76795" lon="-0.85586">
        <ele>141.6</ele>
        <time>2023-10-25T06:08:07Z</time>
      </trkpt>
      <trkpt lat="46.76804" lon="-0.85612">
        <ele>140.9</ele>
        <time>2023-10-25T06:08:13Z</time>
      </trkpt>
      <trkpt lat="46.76814" lon="-0.85637">
        <ele>140.1</ele>
        <time>2023-10-25T06:08:19Z</time>
      </trkpt>
      <trkpt lat="46.76824" lon="-0.85663">
        <ele>139.2</ele>
        <time>2023-10-25T06:08:25Z</time>
      </trkpt>
      <trkpt lat="46.76833" lon="-0.8569">
        <ele>138.2</ele>
        <time>2023-10-25T06:08:31Z</time>
      </trkpt>
      <trkpt lat="46.76842" lon="-0.85715">
        <ele>137.2</ele>
        <time>2023-10-25T06:08:37Z</time>
      </trkpt>
      <trkpt lat="46.76851" lon="-0.85739">
        <ele>136.1</ele>
        <time>2023-10-25T06:08:43Z</time>
      </trkpt>
      <trkpt lat="46.76861" lon="-0.85761">
        <ele>135</ele>
        <time>2023-10-25T06:08:49Z</time>
      </trkpt>
      <trkpt lat="46.7687" lon="-0.85786">
        <ele>133.7</ele>
        <time>2023-10-25T06:08:55Z</time>
      </trkpt>
      <trkpt lat="46.76878" lon="-0.85813">
        <ele>132.8</ele>
        <time>2023-10-25T06:09:01Z</time>
      </trkpt>
      <trkpt lat="46.76886" lon="-0.8584">
        <ele>132</ele>
        <time>2023-10-25T06:09:07Z</time>
      </trkpt>
      <trkpt lat="46.76896" lon="-0.85866">
        <ele>131.3</ele>
        <time>2023-10-25T06:09:13Z</time>
      </trkpt>
      <trkpt lat="46.76908" lon="-0.85889">
        <ele>131.1</ele>
        <time>2023-10-25T06:09:19Z</time>
      </trkpt>
      <trkpt lat="46.76918" lon="-0.85912">
        <ele>131.1</ele>
        <time>2023-10-25T06:09:25Z</time>
      </trkpt>
      <trkpt lat="46.7693" lon="-0.85933">
        <ele>131.5</ele>
        <time>2023-10-25T06:09:31Z</time>
      </trkpt>
      <trkpt lat="46.76944" lon="-0.85951">
        <ele>132.1</ele>
        <time>2023-10-25T06:09:39Z</time>
      </trkpt>
    </trkseg>
  </trk>
</gpx>